Kezdőlap
METAR-TAF:

METAR-TAF

Repülőterek :

Lamoni Municipal Airport

Lamoni, Iowa, Amerikai Egyesült Államok

földrajzi szélesség: 40-37-50N, földrajzi hosszúság: 093-54-03W, magasság: 344 m

Jelenlegi meteorológiai megfigyelések

A jelentés 37 perccel ezelõtt készült, 16:53 UTC
Délkeleti szél 5 kt
Hőmérséklet 28°C
Páratartalom 66%
Légköri nyomás 1018 hPa
Látótávolság: 16.1 km
Derült ég

METAR: KLWD 131653Z AUTO 14005KT 10SM CLR 28/21 A3005 RMK AO2 SLP165 T02830211

Idő: 12:30 (17:30 UTC)


TAF: hiányzik

Meteorológiai megfigyelések és előrejelzések több, mint 4000 repülőtéren (METAR és TAF jelentéseket).

A térképen piros és sárga pontok jelzik az elérhető meteorológiai állomásokat.

Mozgassa az egeret a pont fölött, hogy megjelenjen az állomás neve.

Azután kattintson az időjárási megfigyelések és előrejelzések megtekintéséhez.

A térkép megváltoztatása: kattintson a fekete keresztel jelölt zöld gombra ráközelítéshez, a vonallal jelölt zöld gombra távolításhoz, vagy a zöld nyilakra a szomszédos térképek eléréséhez.


METAR-TAF: